Time;durP1;ratioP1;P1;durP2;ratioP2;P2;SDS_P1;SDS_P2;PMS_P1;PMS_P2;Temp;Humidity;BMP_temperature;BMP_pressure;BME280_temperature;BME280_humidity;BME280_pressure;Samples;Min_cycle;Max_cycle;Signal;HPM_P1;HPM_P2
2022/08/21 00:02:15;;;;;;;0.47;0.47;;;16.40;73.70;;;;;;6247702;22;19999;-74
2022/08/21 00:04:41;;;;;;;0.47;0.40;;;16.40;73.70;;;;;;6247639;22;20371;-74
2022/08/21 00:07:07;;;;;;;0.47;0.43;;;16.30;74.30;;;;;;6275883;22;20078;-74
2022/08/21 00:09:33;;;;;;;0.50;0.43;;;16.30;73.70;;;;;;6247680;22;20439;-75
2022/08/21 00:11:59;;;;;;;0.47;0.40;;;16.30;73.90;;;;;;6274549;22;20007;-74
2022/08/21 00:14:25;;;;;;;0.60;0.50;;;16.20;73.90;;;;;;6275070;22;20003;-74
2022/08/21 00:16:50;;;;;;;0.73;0.60;;;16.20;74.10;;;;;;6274603;22;20003;-74
2022/08/21 00:19:16;;;;;;;0.60;0.50;;;16.20;74.10;;;;;;6247218;22;20332;-75
2022/08/21 00:21:42;;;;;;;0.80;0.52;;;16.20;74.20;;;;;;6247409;22;20331;-75
2022/08/21 00:24:08;;;;;;;0.77;0.45;;;16.20;74.30;;;;;;6274456;22;20441;-74
2022/08/21 00:26:34;;;;;;;0.90;0.50;;;16.10;74.30;;;;;;6274471;22;19995;-74
2022/08/21 00:29:00;;;;;;;0.50;0.50;;;16.10;74.40;;;;;;6246589;22;20007;-74
2022/08/21 00:31:25;;;;;;;1.38;0.60;;;16.10;74.50;;;;;;6274489;22;20086;-75
2022/08/21 00:33:51;;;;;;;0.50;0.50;;;16.00;74.50;;;;;;6275071;22;20332;-75
2022/08/21 00:36:17;;;;;;;0.88;0.60;;;16.00;74.60;;;;;;6274156;22;20007;-74
2022/08/21 00:38:43;;;;;;;0.50;0.50;;;16.00;74.60;;;;;;6247839;22;19999;-75
2022/08/21 00:41:10;;;;;;;1.08;0.55;;;16.00;74.60;;;;;;6274763;22;20408;-74
2022/08/21 00:43:38;;;;;;;0.60;0.50;;;16.00;74.80;;;;;;6274798;22;19999;-74
2022/08/21 00:46:05;;;;;;;0.40;0.40;;;16.00;74.80;;;;;;6274943;22;20508;-75
2022/08/21 00:48:32;;;;;;;0.85;0.65;;;16.00;74.90;;;;;;6247141;22;20000;-74
2022/08/21 00:51:03;;;;;;;0.43;0.40;;;15.90;74.90;;;;;;6274242;22;20003;-74
2022/08/21 00:53:30;;;;;;;0.60;0.50;;;15.90;74.90;;;;;;6274547;22;20054;-74
2022/08/21 00:55:57;;;;;;;1.02;0.60;;;15.90;75.00;;;;;;6246832;22;20020;-74
2022/08/21 00:58:26;;;;;;;0.30;0.30;;;15.80;75.00;;;;;;6221939;22;20003;-74
2022/08/21 01:00:52;;;;;;;0.60;0.60;;;15.80;75.00;;;;;;6274683;22;20351;-75
2022/08/21 01:03:21;;;;;;;0.73;0.40;;;15.80;75.20;;;;;;6275372;22;20416;-75
2022/08/21 01:05:47;;;;;;;0.63;0.50;;;15.80;75.20;;;;;;6276155;22;20006;-74
2022/08/21 01:08:16;;;;;;;0.85;0.70;;;15.80;75.30;;;;;;6248620;22;20007;-74
2022/08/21 01:10:44;;;;;;;0.95;0.60;;;15.70;75.30;;;;;;6248657;22;20019;-74
2022/08/21 01:13:12;;;;;;;0.60;0.60;;;15.70;75.40;;;;;;6248801;22;20044;-74
2022/08/21 01:15:42;;;;;;;1.38;0.70;;;15.70;75.40;;;;;;6276084;22;20061;-74
2022/08/21 01:18:10;;;;;;;0.65;0.60;;;15.70;75.50;;;;;;6275815;22;20420;-75
2022/08/21 01:20:38;;;;;;;0.80;0.60;;;15.70;75.50;;;;;;6275765;22;20055;-75
2022/08/21 01:23:05;;;;;;;1.10;0.70;;;15.60;75.60;;;;;;6275848;22;20408;-75
2022/08/21 01:25:32;;;;;;;0.82;0.73;;;15.60;75.70;;;;;;6276157;22;20024;-74
2022/08/21 01:28:04;;;;;;;0.57;0.52;;;15.60;75.70;;;;;;6219757;22;20007;-75
2022/08/21 01:30:33;;;;;;;0.73;0.60;;;15.50;75.70;;;;;;6223052;22;20074;-74
2022/08/21 01:32:59;;;;;;;0.70;0.50;;;15.60;75.80;;;;;;6224201;22;20031;-75
2022/08/21 01:35:25;;;;;;;0.60;0.60;;;15.50;75.80;;;;;;6275391;22;20015;-74
2022/08/21 01:37:51;;;;;;;1.20;0.70;;;15.50;75.90;;;;;;6276009;22;20052;-74
2022/08/21 01:40:18;;;;;;;0.80;0.60;;;15.50;75.90;;;;;;6275984;22;20324;-74
2022/08/21 01:42:45;;;;;;;0.80;0.70;;;15.40;75.90;;;;;;6272097;22;20007;-74
2022/08/21 01:45:12;;;;;;;0.60;0.60;;;15.40;75.90;;;;;;6223058;22;20027;-74
2022/08/21 01:47:38;;;;;;;1.17;0.85;;;15.40;76.00;;;;;;6249061;22;20004;-74
2022/08/21 01:50:07;;;;;;;0.50;0.50;;;15.40;76.00;;;;;;6275893;22;20023;-74
2022/08/21 01:52:33;;;;;;;0.60;0.50;;;15.40;76.10;;;;;;6249016;22;20000;-74
2022/08/21 01:55:00;;;;;;;0.63;0.60;;;15.40;76.10;;;;;;6275042;22;20332;-74
2022/08/21 01:57:26;;;;;;;0.98;0.60;;;15.40;76.10;;;;;;6275156;22;20059;-74
2022/08/21 01:59:52;;;;;;;1.17;0.63;;;15.40;76.10;;;;;;6248170;22;20006;-75
2022/08/21 02:02:18;;;;;;;0.30;0.30;;;15.40;76.20;;;;;;6275553;22;20031;-74
2022/08/21 02:04:43;;;;;;;1.05;0.75;;;15.30;76.10;;;;;;6275570;22;20000;-74
2022/08/21 02:07:09;;;;;;;0.65;0.60;;;15.30;76.20;;;;;;6276124;22;20054;-74
2022/08/21 02:09:35;;;;;;;0.40;0.40;;;15.30;76.20;;;;;;6275513;22;20006;-74
2022/08/21 02:12:01;;;;;;;0.40;0.40;;;15.30;76.30;;;;;;6275634;22;20007;-74
2022/08/21 02:14:26;;;;;;;0.70;0.60;;;15.30;76.40;;;;;;6275736;22;20019;-74
2022/08/21 02:16:52;;;;;;;0.50;0.50;;;15.20;76.40;;;;;;6275919;22;20010;-74
2022/08/21 02:19:18;;;;;;;0.47;0.47;;;15.20;76.40;;;;;;6276072;22;20038;-74
2022/08/21 02:21:44;;;;;;;0.68;0.60;;;15.20;76.40;;;;;;6248896;22;20003;-74
2022/08/21 02:24:11;;;;;;;0.60;0.60;;;15.20;76.50;;;;;;6275341;22;19996;-74
2022/08/21 02:26:38;;;;;;;0.60;0.60;;;15.20;76.50;;;;;;6248617;22;20060;-74
2022/08/21 02:29:05;;;;;;;0.77;0.40;;;15.20;76.50;;;;;;6275049;22;20006;-74
2022/08/21 02:31:31;;;;;;;0.55;0.50;;;15.10;76.50;;;;;;6272504;22;20007;-74
2022/08/21 02:33:57;;;;;;;0.45;0.45;;;15.20;76.60;;;;;;6248086;22;20083;-74
2022/08/21 02:36:23;;;;;;;0.50;0.50;;;15.10;76.50;;;;;;6275083;22;20040;-74
2022/08/21 02:38:49;;;;;;;0.73;0.65;;;15.20;76.70;;;;;;6247958;22;20004;-74
2022/08/21 02:41:17;;;;;;;0.55;0.50;;;15.10;76.60;;;;;;6275180;22;20061;-74
2022/08/21 02:43:43;;;;;;;0.60;0.60;;;15.10;76.70;;;;;;6247974;22;20486;-74
2022/08/21 02:46:12;;;;;;;0.70;0.60;;;15.00;76.70;;;;;;6271750;22;20026;-74
2022/08/21 02:48:39;;;;;;;0.50;0.50;;;15.10;76.90;;;;;;6275164;22;20011;-74
2022/08/21 02:51:11;;;;;;;0.57;0.57;;;15.00;76.80;;;;;;6248225;22;20004;-74
2022/08/21 02:53:37;;;;;;;0.90;0.75;;;15.00;76.80;;;;;;6247906;22;20036;-74
2022/08/21 02:56:07;;;;;;;0.88;0.52;;;15.00;76.90;;;;;;6275158;22;20046;-74
2022/08/21 02:58:38;;;;;;;0.90;0.60;;;14.90;76.90;;;;;;6248673;22;20011;-74
2022/08/21 03:01:04;;;;;;;0.95;0.73;;;14.90;77.00;;;;;;6275149;22;20002;-74
2022/08/21 03:03:30;;;;;;;0.60;0.60;;;15.00;77.00;;;;;;6275017;22;20008;-74
2022/08/21 03:05:56;;;;;;;0.50;0.50;;;14.90;77.10;;;;;;6248131;22;20049;-74
2022/08/21 03:08:23;;;;;;;0.50;0.50;;;14.90;77.20;;;;;;6275719;22;20008;-74
2022/08/21 03:10:53;;;;;;;0.70;0.60;;;14.90;77.20;;;;;;6275175;22;20000;-74
2022/08/21 03:13:20;;;;;;;0.90;0.60;;;14.90;77.90;;;;;;6248142;22;20416;-75
2022/08/21 03:15:47;;;;;;;0.88;0.70;;;14.90;77.20;;;;;;6274701;22;20332;-74
2022/08/21 03:18:13;;;;;;;0.75;0.70;;;14.80;77.20;;;;;;6274943;22;20371;-74
2022/08/21 03:20:41;;;;;;;0.63;0.57;;;14.80;77.30;;;;;;6247972;22;20071;-74
2022/08/21 03:23:07;;;;;;;0.85;0.63;;;14.80;77.40;;;;;;6274661;22;20007;-74
2022/08/21 03:25:34;;;;;;;0.68;0.50;;;14.80;77.50;;;;;;6247872;22;20102;-74
2022/08/21 03:28:02;;;;;;;0.65;0.65;;;14.80;77.60;;;;;;6275324;22;20007;-74
2022/08/21 03:30:30;;;;;;;0.98;0.63;;;14.70;77.50;;;;;;6247660;22;20008;-74
2022/08/21 03:32:58;;;;;;;0.40;0.40;;;14.70;77.60;;;;;;6223271;22;20383;-74
2022/08/21 03:35:24;;;;;;;0.88;0.73;;;14.70;78.20;;;;;;6247462;22;20429;-74
2022/08/21 03:37:50;;;;;;;0.60;0.60;;;14.70;77.60;;;;;;6272406;22;20010;-74
2022/08/21 03:40:18;;;;;;;0.52;0.50;;;14.70;77.70;;;;;;6248339;22;20063;-74
2022/08/21 03:42:46;;;;;;;0.57;0.52;;;14.60;77.70;;;;;;6274968;22;20000;-74
2022/08/21 03:45:14;;;;;;;0.70;0.50;;;14.70;77.80;;;;;;6248460;22;20340;-74
2022/08/21 03:47:58;;;;;;;0.98;0.50;;;14.60;77.70;;;;;;6275169;22;20336;-74
2022/08/21 03:50:27;;;;;;;1.13;0.60;;;14.70;77.90;;;;;;6275170;22;19999;-74
2022/08/21 03:52:53;;;;;;;0.47;0.47;;;14.60;77.80;;;;;;6274707;22;20103;-74
2022/08/21 03:55:19;;;;;;;0.40;0.40;;;14.60;77.80;;;;;;6247546;22;20387;-74
2022/08/21 03:57:45;;;;;;;0.60;0.60;;;14.60;77.90;;;;;;6275487;22;20000;-74
2022/08/21 04:00:13;;;;;;;1.05;0.60;;;14.50;77.90;;;;;;6274538;22;19996;-74
2022/08/21 04:02:39;;;;;;;0.85;0.75;;;14.50;77.90;;;;;;6275061;22;20035;-74
2022/08/21 04:05:06;;;;;;;2.28;0.75;;;14.50;77.90;;;;;;6275047;22;20004;-74
2022/08/21 04:07:32;;;;;;;0.57;0.57;;;14.50;77.90;;;;;;6272503;22;20110;-74
2022/08/21 04:09:58;;;;;;;0.70;0.65;;;14.50;77.90;;;;;;6247613;22;20051;-74
2022/08/21 04:12:23;;;;;;;1.10;0.75;;;14.50;78.00;;;;;;6275541;22;20011;-74
2022/08/21 04:14:51;;;;;;;0.98;0.80;;;14.50;78.10;;;;;;6275514;22;20008;-74
2022/08/21 04:17:17;;;;;;;0.93;0.70;;;14.40;78.00;;;;;;6249069;22;20069;-74
2022/08/21 04:19:43;;;;;;;1.08;0.45;;;14.40;78.10;;;;;;6247965;22;20022;-74
2022/08/21 04:22:09;;;;;;;0.60;0.60;;;14.50;78.20;;;;;;6275011;22;20030;-74
2022/08/21 04:24:35;;;;;;;0.50;0.50;;;14.40;78.20;;;;;;6247851;22;20008;-74
2022/08/21 04:27:01;;;;;;;0.80;0.60;;;14.40;78.20;;;;;;6275205;22;20008;-74
2022/08/21 04:29:27;;;;;;;1.13;0.70;;;14.40;78.20;;;;;;6247668;22;20027;-75
2022/08/21 04:31:52;;;;;;;0.60;0.60;;;14.40;78.20;;;;;;6274733;22;20000;-74
2022/08/21 04:34:19;;;;;;;0.60;0.60;;;14.40;78.30;;;;;;6274405;22;20003;-74
2022/08/21 04:36:45;;;;;;;0.65;0.60;;;14.40;78.40;;;;;;6247919;22;20489;-74
2022/08/21 04:39:10;;;;;;;0.65;0.60;;;14.40;78.40;;;;;;6274883;22;20024;-74
2022/08/21 04:41:36;;;;;;;0.70;0.68;;;14.40;78.40;;;;;;6274613;22;20273;-74
2022/08/21 04:44:03;;;;;;;1.27;0.60;;;14.40;78.40;;;;;;6247512;22;19996;-74
2022/08/21 04:46:29;;;;;;;0.68;0.68;;;14.40;78.40;;;;;;6274652;22;20093;-74
2022/08/21 04:48:55;;;;;;;0.77;0.60;;;14.40;78.40;;;;;;6274346;22;20003;-74
2022/08/21 04:51:28;;;;;;;0.45;0.45;;;14.40;78.40;;;;;;6247577;22;20008;-74
2022/08/21 04:54:00;;;;;;;0.80;0.50;;;14.40;78.50;;;;;;6271598;22;20039;-74
2022/08/21 04:56:31;;;;;;;0.68;0.60;;;14.40;78.40;;;;;;6274294;22;20016;-74
2022/08/21 04:58:59;;;;;;;;;;;14.40;78.40;;;;;;6275154;22;20074;-74
2022/08/21 05:01:28;;;;;;;0.50;0.50;;;14.40;78.40;;;;;;6274194;22;19906;-74
2022/08/21 05:03:58;;;;;;;0.77;0.50;;;14.40;78.40;;;;;;6275181;22;20363;-74
2022/08/21 05:06:24;;;;;;;0.57;0.57;;;14.40;78.40;;;;;;6274490;22;20011;-74
2022/08/21 05:08:53;;;;;;;0.50;0.50;;;14.40;78.40;;;;;;6245265;22;20000;-74
2022/08/21 05:11:19;;;;;;;1.48;0.50;;;14.40;78.40;;;;;;6275037;22;20424;-74
2022/08/21 05:13:45;;;;;;;0.70;0.63;;;14.40;78.40;;;;;;6275026;22;20011;-74
2022/08/21 05:16:11;;;;;;;0.47;0.45;;;14.40;78.50;;;;;;6247936;22;20011;-74
2022/08/21 05:18:37;;;;;;;0.50;0.50;;;14.40;78.50;;;;;;6274306;22;19999;-74
2022/08/21 05:21:04;;;;;;;1.27;0.70;;;14.40;78.50;;;;;;6274975;22;20026;-74
2022/08/21 05:23:30;;;;;;;0.60;0.60;;;14.40;78.50;;;;;;6247277;22;20007;-74
2022/08/21 05:25:56;;;;;;;0.80;0.70;;;14.40;78.50;;;;;;6247141;22;20004;-74
2022/08/21 05:28:23;;;;;;;0.73;0.70;;;14.40;78.50;;;;;;6247016;22;20011;-74
2022/08/21 05:30:49;;;;;;;0.60;0.60;;;14.40;78.50;;;;;;6274143;22;20004;-74
2022/08/21 05:33:15;;;;;;;0.70;0.70;;;14.50;78.50;;;;;;6274225;22;20003;-74
2022/08/21 05:35:41;;;;;;;0.55;0.55;;;14.50;78.50;;;;;;6274455;22;20008;-74
2022/08/21 05:38:07;;;;;;;0.70;0.68;;;14.50;78.50;;;;;;6245763;22;20421;-74
2022/08/21 05:40:33;;;;;;;0.40;0.40;;;14.60;78.60;;;;;;6247068;22;20004;-75
2022/08/21 05:42:59;;;;;;;0.50;0.50;;;14.50;78.40;;;;;;6274602;22;20053;-74
2022/08/21 05:45:30;;;;;;;0.68;0.60;;;14.60;78.50;;;;;;6274510;22;20019;-74
2022/08/21 05:47:56;;;;;;;;;;;14.70;78.50;;;;;;6276338;22;20083;-74
2022/08/21 05:50:22;;;;;;;0.93;0.80;;;14.70;78.40;;;;;;6275400;22;19927;-74
2022/08/21 05:52:47;;;;;;;0.70;0.60;;;14.70;78.30;;;;;;6249323;22;20006;-74
2022/08/21 05:55:13;;;;;;;0.80;0.65;;;14.80;78.20;;;;;;6276210;22;20014;-74
2022/08/21 05:57:41;;;;;;;1.13;0.90;;;14.80;78.20;;;;;;6223417;22;20118;-74
2022/08/21 06:00:12;;;;;;;1.13;0.82;;;14.90;78.20;;;;;;6275932;22;19995;-74
2022/08/21 06:02:38;;;;;;;0.95;0.90;;;14.90;78.20;;;;;;6275811;22;20003;-74
2022/08/21 06:05:04;;;;;;;1.08;0.90;;;15.00;78.10;;;;;;6275683;22;20004;-74
2022/08/21 06:07:30;;;;;;;1.75;1.10;;;15.00;78.00;;;;;;6276125;22;20003;-74
2022/08/21 06:09:56;;;;;;;0.77;0.77;;;15.20;78.10;;;;;;6248436;22;20113;-74
2022/08/21 06:12:22;;;;;;;1.50;0.88;;;15.20;77.90;;;;;;6275272;22;20085;-74
2022/08/21 06:14:48;;;;;;;0.90;0.90;;;15.30;77.90;;;;;;6275694;22;20008;-74
2022/08/21 06:17:15;;;;;;;1.23;0.80;;;15.30;77.80;;;;;;6275315;22;20396;-74
2022/08/21 06:19:41;;;;;;;0.70;0.70;;;15.30;77.80;;;;;;6275442;22;20370;-74
2022/08/21 06:22:07;;;;;;;1.67;1.00;;;15.40;77.90;;;;;;6275596;22;20030;-74
2022/08/21 06:24:33;;;;;;;1.23;1.00;;;15.40;77.80;;;;;;6248871;22;20026;-74
2022/08/21 06:27:05;;;;;;;1.13;0.90;;;15.50;77.70;;;;;;6275233;22;20011;-74
2022/08/21 06:29:30;;;;;;;1.30;0.90;;;15.60;77.70;;;;;;6275773;22;20006;-74
2022/08/21 06:31:56;;;;;;;1.63;1.20;;;15.60;77.60;;;;;;6248370;22;20071;-74
2022/08/21 06:34:22;;;;;;;1.63;1.02;;;15.60;77.50;;;;;;6248874;22;20004;-74
2022/08/21 06:36:47;;;;;;;1.00;0.90;;;15.70;77.50;;;;;;6275912;22;20328;-74
2022/08/21 06:39:13;;;;;;;2.47;1.13;;;15.80;77.60;;;;;;6275539;22;20000;-74
2022/08/21 06:41:39;;;;;;;0.88;0.73;;;15.90;77.50;;;;;;6247246;22;20012;-75
2022/08/21 06:44:05;;;;;;;0.77;0.65;;;15.90;77.40;;;;;;6248042;22;20000;-74
2022/08/21 06:46:31;;;;;;;1.35;0.85;;;16.00;77.50;;;;;;6248211;22;20494;-74
2022/08/21 06:48:57;;;;;;;1.02;0.55;;;16.00;77.40;;;;;;6248056;22;20004;-74
2022/08/21 06:51:25;;;;;;;0.95;0.85;;;16.10;77.50;;;;;;6274934;22;20004;-74
2022/08/21 06:53:51;;;;;;;1.42;1.02;;;16.10;77.40;;;;;;6275088;22;20305;-74
2022/08/21 06:56:17;;;;;;;1.10;0.75;;;16.20;77.40;;;;;;6275026;22;20004;-75
2022/08/21 06:58:42;;;;;;;1.15;0.90;;;16.20;77.30;;;;;;6247937;22;20070;-74
2022/08/21 07:01:08;;;;;;;0.90;0.90;;;16.30;77.30;;;;;;6275295;22;20428;-75
2022/08/21 07:03:37;;;;;;;1.15;1.00;;;16.30;77.30;;;;;;6276807;22;20000;-74
2022/08/21 07:06:04;;;;;;;1.67;1.00;;;16.40;77.30;;;;;;6275339;22;20442;-75
2022/08/21 07:08:30;;;;;;;0.90;0.77;;;16.40;77.30;;;;;;6274976;22;20008;-74
2022/08/21 07:10:58;;;;;;;1.00;0.82;;;16.50;77.40;;;;;;6275790;22;20007;-74
2022/08/21 07:13:24;;;;;;;1.83;1.00;;;16.50;77.30;;;;;;6248273;22;20078;-75
2022/08/21 07:15:50;;;;;;;1.42;0.90;;;16.60;77.10;;;;;;6275173;22;20438;-74
2022/08/21 07:18:16;;;;;;;1.38;0.90;;;16.70;77.00;;;;;;6275051;22;20004;-74
2022/08/21 07:20:43;;;;;;;1.10;0.82;;;16.70;77.00;;;;;;6246831;22;20004;-75
2022/08/21 07:23:13;;;;;;;1.10;0.88;;;16.70;77.00;;;;;;6242456;22;20000;-75
2022/08/21 07:25:39;;;;;;;0.63;0.63;;;16.80;77.00;;;;;;6275475;22;20035;-74
2022/08/21 07:28:05;;;;;;;0.68;0.68;;;16.90;77.00;;;;;;6275564;22;20003;-74
2022/08/21 07:30:32;;;;;;;0.80;0.80;;;16.90;77.00;;;;;;6274800;22;20420;-74
2022/08/21 07:32:58;;;;;;;1.58;0.93;;;17.10;77.00;;;;;;6274887;22;20053;-75
2022/08/21 07:35:27;;;;;;;0.90;0.90;;;17.10;76.80;;;;;;6275414;22;20305;-74
2022/08/21 07:37:53;;;;;;;1.48;1.17;;;17.10;76.70;;;;;;6223619;22;20434;-74
2022/08/21 07:40:19;;;;;;;1.67;1.20;;;17.20;76.70;;;;;;6275094;22;20048;-75
2022/08/21 07:42:51;;;;;;;2.17;1.15;;;17.20;76.70;;;;;;6275178;22;20455;-74
2022/08/21 07:45:17;;;;;;;3.58;1.15;;;17.30;77.20;;;;;;6275000;22;19999;-74
2022/08/21 07:47:43;;;;;;;2.55;1.00;;;17.40;76.50;;;;;;6246810;22;20008;-75
2022/08/21 07:50:13;;;;;;;1.40;0.82;;;17.50;76.40;;;;;;6275549;22;20089;-75
2022/08/21 07:52:40;;;;;;;1.48;0.98;;;17.70;76.40;;;;;;6275200;22;20050;-75
2022/08/21 07:55:07;;;;;;;1.40;0.82;;;17.80;76.10;;;;;;6221903;22;20035;-74
2022/08/21 07:57:33;;;;;;;1.35;1.08;;;17.90;75.80;;;;;;6274768;22;20003;-75
2022/08/21 07:59:59;;;;;;;1.10;0.95;;;18.10;75.80;;;;;;6274743;22;20004;-75
2022/08/21 08:02:28;;;;;;;1.83;0.95;;;18.10;75.70;;;;;;6248645;22;20373;-75
2022/08/21 08:04:54;;;;;;;0.75;0.70;;;18.20;75.60;;;;;;6275145;22;20033;-75
2022/08/21 08:07:20;;;;;;;1.40;0.90;;;18.30;75.50;;;;;;6275126;22;20010;-75
2022/08/21 08:09:46;;;;;;;0.95;0.82;;;18.40;75.60;;;;;;6274935;22;20000;-75
2022/08/21 08:12:12;;;;;;;2.05;0.95;;;18.50;75.50;;;;;;6275746;22;20004;-75
2022/08/21 08:14:37;;;;;;;1.55;0.90;;;18.60;75.50;;;;;;6221534;22;20018;-75
2022/08/21 08:17:03;;;;;;;0.95;0.75;;;18.80;75.10;;;;;;6275007;22;20058;-75
2022/08/21 08:19:30;;;;;;;1.95;0.90;;;18.90;75.10;;;;;;6274760;22;19996;-75
2022/08/21 08:21:56;;;;;;;1.90;1.10;;;19.10;75.00;;;;;;6247472;22;20099;-74
2022/08/21 08:24:21;;;;;;;2.25;1.10;;;19.30;74.70;;;;;;6274860;22;20019;-75
2022/08/21 08:26:47;;;;;;;2.80;1.00;;;19.50;74.30;;;;;;6247448;22;20071;-75
2022/08/21 08:29:13;;;;;;;1.50;0.80;;;19.70;73.90;;;;;;6274759;22;20328;-75
2022/08/21 08:31:39;;;;;;;2.13;0.90;;;19.80;73.90;;;;;;6274693;22;20035;-75
2022/08/21 08:34:05;;;;;;;1.75;0.80;;;19.90;74.00;;;;;;6274663;22;20083;-75
2022/08/21 08:36:35;;;;;;;2.67;1.13;;;20.00;73.90;;;;;;6274483;22;20317;-75
2022/08/21 08:39:03;;;;;;;1.90;1.17;;;20.20;73.70;;;;;;6274808;22;20007;-75
2022/08/21 08:41:30;;;;;;;2.20;1.20;;;20.20;73.60;;;;;;6274456;22;19995;-75
2022/08/21 08:44:02;;;;;;;1.10;0.60;;;20.40;73.60;;;;;;6274703;22;20007;-75
2022/08/21 08:46:37;;;;;;;1.08;0.85;;;20.50;73.60;;;;;;6274403;22;20045;-75
2022/08/21 08:49:18;;;;;;;1.52;0.82;;;20.70;73.40;;;;;;6274403;22;20328;-75
2022/08/21 08:51:56;;;;;;;1.13;0.82;;;20.80;73.30;;;;;;6275065;22;20008;-75
2022/08/21 08:54:41;;;;;;;2.72;1.00;;;20.90;73.70;;;;;;6274309;22;20039;-75
2022/08/21 08:57:14;;;;;;;1.33;0.93;;;21.10;73.00;;;;;;6274517;22;20010;-75
2022/08/21 08:59:44;;;;;;;1.20;0.73;;;21.20;72.80;;;;;;6247208;22;20011;-75
2022/08/21 09:02:12;;;;;;;1.67;0.85;;;21.30;72.80;;;;;;6274683;22;19996;-75
2022/08/21 09:04:39;;;;;;;1.20;0.80;;;21.40;72.70;;;;;;6247707;22;20000;-75
2022/08/21 09:07:24;;;;;;;1.58;0.70;;;21.50;72.30;;;;;;6247613;22;20004;-75
2022/08/21 09:10:11;;;;;;;2.22;0.80;;;21.50;72.20;;;;;;6274457;22;20003;-75
2022/08/21 09:12:55;;;;;;;0.95;0.60;;;21.60;72.40;;;;;;6247207;22;20443;-74
2022/08/21 09:15:32;;;;;;;1.27;0.63;;;21.80;72.40;;;;;;6274209;22;20008;-75
2022/08/21 09:18:28;;;;;;;2.05;0.90;;;21.70;72.30;;;;;;6274507;22;20007;-75
2022/08/21 09:21:09;;;;;;;0.80;0.80;;;21.80;72.10;;;;;;6274769;22;20022;-75
2022/08/21 09:23:57;;;;;;;4.07;1.00;;;22.00;72.00;;;;;;6276046;22;19992;-75
2022/08/21 09:26:29;;;;;;;0.88;0.73;;;22.10;71.90;;;;;;6275789;22;20049;-75
2022/08/21 09:28:58;;;;;;;0.75;0.60;;;22.20;71.80;;;;;;6275587;22;20059;-74
2022/08/21 09:31:29;;;;;;;1.10;0.80;;;22.30;71.50;;;;;;6275520;22;20081;-75
2022/08/21 09:34:08;;;;;;;0.80;0.50;;;22.30;71.30;;;;;;6276073;22;20054;-74
2022/08/21 09:36:40;;;;;;;1.65;0.70;;;22.50;71.30;;;;;;6220930;22;20103;-75
2022/08/21 09:39:07;;;;;;;0.80;0.70;;;22.60;71.20;;;;;;6275776;22;20004;-75
2022/08/21 09:41:35;;;;;;;1.40;0.75;;;22.60;71.10;;;;;;6248709;22;20090;-75
2022/08/21 09:44:02;;;;;;;1.35;0.70;;;22.70;70.80;;;;;;6276662;22;20039;-75
2022/08/21 09:46:28;;;;;;;1.88;0.90;;;22.80;70.70;;;;;;6275882;22;20053;-75
2022/08/21 09:48:57;;;;;;;1.10;0.70;;;22.90;70.70;;;;;;6275994;22;20441;-75
2022/08/21 09:51:33;;;;;;;2.53;1.00;;;23.10;70.40;;;;;;6245937;22;19997;-74
2022/08/21 09:54:17;;;;;;;1.30;0.50;;;23.20;70.00;;;;;;6248077;22;20027;-75
2022/08/21 09:59:45;;;;;;;0.77;0.50;;;23.00;70.20;;;;;;6276730;22;20023;-75
2022/08/21 10:02:25;;;;;;;0.82;0.60;;;23.00;70.20;;;;;;6248415;22;20003;-75
2022/08/21 10:04:56;;;;;;;0.43;0.40;;;22.90;70.50;;;;;;6251286;22;20007;-75
2022/08/21 10:07:25;;;;;;;1.38;0.65;;;22.90;70.60;;;;;;6246547;22;20004;-75
2022/08/21 10:10:18;;;;;;;0.68;0.60;;;23.00;70.40;;;;;;6249654;22;20000;-75
2022/08/21 10:13:10;;;;;;;0.47;0.40;;;22.90;70.20;;;;;;6275930;22;20007;-75
2022/08/21 10:15:59;;;;;;;1.27;0.70;;;23.10;69.80;;;;;;6275994;22;20070;-75
2022/08/21 10:18:35;;;;;;;0.50;0.50;;;23.10;69.60;;;;;;6246555;22;20378;-75
2022/08/21 10:21:16;;;;;;;0.90;0.63;;;23.10;69.50;;;;;;6223760;22;20012;-75
2022/08/21 10:24:06;;;;;;;0.65;0.50;;;23.00;69.60;;;;;;6276367;22;19996;-75
2022/08/21 10:26:56;;;;;;;1.70;0.47;;;23.00;69.80;;;;;;6275886;22;20011;-75
2022/08/21 10:29:40;;;;;;;0.85;0.63;;;23.00;69.80;;;;;;6279953;22;20023;-74
2022/08/21 10:32:21;;;;;;;1.58;0.70;;;23.10;69.40;;;;;;6275814;22;20364;-75
2022/08/21 10:35:10;;;;;;;0.70;0.47;;;23.20;69.10;;;;;;6275792;22;20077;-75
2022/08/21 10:38:02;;;;;;;1.08;0.60;;;23.20;68.80;;;;;;6275667;22;20075;-75
2022/08/21 10:40:51;;;;;;;0.75;0.50;;;23.30;68.60;;;;;;6253146;22;20000;-75
2022/08/21 10:43:42;;;;;;;0.75;0.50;;;23.30;68.40;;;;;;6276770;22;19996;-75
2022/08/21 10:46:41;;;;;;;2.17;0.60;;;23.60;68.10;;;;;;6275824;22;20073;-75
2022/08/21 10:49:31;;;;;;;0.90;0.50;;;23.70;67.60;;;;;;6276202;22;20003;-75
2022/08/21 10:52:36;;;;;;;0.60;0.60;;;23.80;67.50;;;;;;6226312;22;20020;-75
2022/08/21 10:55:21;;;;;;;1.00;0.68;;;23.90;67.20;;;;;;6273611;22;20082;-75
2022/08/21 10:57:57;;;;;;;0.75;0.60;;;23.90;66.80;;;;;;6275678;22;20026;-74
2022/08/21 11:00:29;;;;;;;1.05;0.60;;;23.80;66.90;;;;;;6275189;22;20027;-75
2022/08/21 11:03:22;;;;;;;0.52;0.50;;;24.00;66.90;;;;;;6249459;22;20375;-75
2022/08/21 11:06:02;;;;;;;1.27;0.60;;;24.00;66.70;;;;;;6275396;22;19999;-75
2022/08/21 11:08:33;;;;;;;1.25;0.50;;;24.00;66.70;;;;;;6276298;22;19999;-75
2022/08/21 11:11:08;;;;;;;1.65;0.50;;;24.00;66.60;;;;;;6223513;22;20000;-74
2022/08/21 11:13:53;;;;;;;3.53;0.70;;;24.10;66.20;;;;;;6248517;22;20359;-75
2022/08/21 11:16:37;;;;;;;0.80;0.43;;;24.20;65.90;;;;;;6251720;22;20011;-75
2022/08/21 11:19:19;;;;;;;0.70;0.45;;;24.20;65.80;;;;;;6272081;22;19996;-75
2022/08/21 11:21:56;;;;;;;0.88;0.50;;;24.30;66.20;;;;;;6275338;22;20034;-75
2022/08/21 11:24:46;;;;;;;1.63;0.70;;;24.40;65.30;;;;;;6275257;22;20033;-76
2022/08/21 11:27:26;;;;;;;1.20;0.45;;;24.30;65.10;;;;;;6275671;22;20011;-73
2022/08/21 11:29:57;;;;;;;1.95;0.50;;;24.50;65.00;;;;;;6274898;22;20008;-75
2022/08/21 11:32:58;;;;;;;2.45;0.65;;;24.60;64.50;;;;;;6248973;22;20035;-75
2022/08/21 11:35:36;;;;;;;1.08;0.50;;;24.80;64.20;;;;;;6254889;22;20012;-75
2022/08/21 11:38:27;;;;;;;0.80;0.50;;;24.70;63.90;;;;;;6245277;22;20011;-76
2022/08/21 11:41:18;;;;;;;1.20;0.60;;;24.60;64.30;;;;;;6275692;22;20432;-75
2022/08/21 11:43:48;;;;;;;0.55;0.45;;;24.60;64.60;;;;;;6275334;22;20012;-76
2022/08/21 11:46:35;;;;;;;0.50;0.40;;;24.60;64.50;;;;;;6248822;22;20440;-75
2022/08/21 11:49:39;;;;;;;1.98;0.60;;;24.70;64.00;;;;;;6247491;22;20014;-75
2022/08/21 11:52:24;;;;;;;1.00;0.43;;;24.50;64.20;;;;;;6258365;22;20074;-76
2022/08/21 11:54:59;;;;;;;0.52;0.47;;;24.50;64.60;;;;;;6276313;22;20010;-74
2022/08/21 11:57:32;;;;;;;1.30;0.30;;;24.50;64.20;;;;;;6248106;22;20008;-75
2022/08/21 12:00:13;;;;;;;0.40;0.40;;;24.60;64.10;;;;;;6274759;22;20003;-75
2022/08/21 12:02:45;;;;;;;0.65;0.30;;;24.90;63.60;;;;;;6274751;22;20003;-74
2022/08/21 12:05:26;;;;;;;1.02;0.50;;;24.90;63.20;;;;;;6274929;22;20085;-76
2022/08/21 12:08:02;;;;;;;1.40;0.40;;;24.70;63.10;;;;;;6275553;22;20015;-76
2022/08/21 12:10:59;;;;;;;2.38;0.60;;;24.70;63.50;;;;;;6247860;22;20000;-73
2022/08/21 12:13:29;;;;;;;0.47;0.40;;;24.60;63.70;;;;;;6274971;22;20004;-76
2022/08/21 12:16:11;;;;;;;0.88;0.43;;;24.50;63.70;;;;;;6276537;22;20008;-76
2022/08/21 12:18:38;;;;;;;1.00;0.50;;;24.70;63.40;;;;;;6275233;22;19996;-75
2022/08/21 12:21:24;;;;;;;0.70;0.50;;;24.70;63.50;;;;;;6275445;22;20003;-75
2022/08/21 12:24:03;;;;;;;0.52;0.50;;;24.80;62.90;;;;;;6275590;22;20011;-75
2022/08/21 12:26:33;;;;;;;1.65;0.57;;;24.90;62.50;;;;;;6274934;22;20504;-75
2022/08/21 12:29:12;;;;;;;2.13;0.60;;;25.00;62.30;;;;;;6248274;22;20098;-75
2022/08/21 12:31:52;;;;;;;0.40;0.40;;;25.10;61.70;;;;;;6275408;22;20007;-73
2022/08/21 12:34:19;;;;;;;0.20;0.20;;;25.20;61.60;;;;;;6248133;22;20011;-75
2022/08/21 12:36:55;;;;;;;0.40;0.40;;;25.20;61.70;;;;;;6248141;22;20014;-76
2022/08/21 12:39:26;;;;;;;1.10;0.45;;;25.30;61.10;;;;;;6274822;22;20074;-76
2022/08/21 12:42:00;;;;;;;1.15;0.50;;;25.30;61.20;;;;;;6275653;22;19999;-73
2022/08/21 12:44:41;;;;;;;0.40;0.40;;;25.10;61.30;;;;;;6275059;22;20023;-75
2022/08/21 12:47:27;;;;;;;0.63;0.30;;;25.00;61.50;;;;;;6247877;22;20019;-75
2022/08/21 12:50:00;;;;;;;0.40;0.40;;;25.10;61.60;;;;;;6275566;22;20424;-76
2022/08/21 12:52:36;;;;;;;0.50;0.47;;;25.40;61.20;;;;;;6275350;22;20035;-76
2022/08/21 12:55:03;;;;;;;0.47;0.43;;;25.40;60.70;;;;;;6247734;22;20015;-76
2022/08/21 12:57:30;;;;;;;0.30;0.30;;;25.40;60.70;;;;;;6277507;22;19999;-75
2022/08/21 12:59:59;;;;;;;0.75;0.50;;;25.40;60.60;;;;;;6276070;22;20073;-75
2022/08/21 13:02:31;;;;;;;2.35;0.55;;;25.40;60.30;;;;;;6249694;22;20007;-73
2022/08/21 13:05:02;;;;;;;1.30;0.50;;;25.30;60.10;;;;;;6276417;22;20026;-75
2022/08/21 13:07:32;;;;;;;0.40;0.40;;;25.30;60.30;;;;;;6249646;22;20035;-76
2022/08/21 13:10:16;;;;;;;0.45;0.40;;;25.30;60.30;;;;;;6275671;22;20145;-76